createdAt,value
2018-05-29T00:01:20.121Z,18.20
2018-05-29T00:03:47.861Z,18.20
2018-05-29T00:06:15.582Z,18.10
2018-05-29T00:08:43.263Z,18.10
2018-05-29T00:11:11.723Z,17.90
2018-05-29T00:13:39.420Z,17.90
2018-05-29T00:16:07.907Z,17.80
2018-05-29T00:18:35.619Z,17.80
2018-05-29T00:21:03.311Z,17.90
2018-05-29T00:23:31.055Z,18.00
2018-05-29T00:25:58.745Z,17.90
2018-05-29T00:28:26.463Z,18.00
2018-05-29T00:30:54.143Z,17.90
2018-05-29T00:33:21.874Z,17.90
2018-05-29T00:35:49.566Z,17.90
2018-05-29T00:38:17.280Z,17.90
2018-05-29T00:40:45.731Z,17.80
2018-05-29T00:43:13.449Z,17.80
2018-05-29T00:45:41.883Z,17.80
2018-05-29T00:48:09.608Z,17.80
2018-05-29T00:50:37.295Z,17.80
2018-05-29T00:53:05.116Z,17.70
2018-05-29T00:55:37.773Z,17.80
2018-05-29T00:58:06.250Z,17.60
2018-05-29T01:00:33.940Z,17.60
2018-05-29T01:03:01.680Z,17.60
2018-05-29T01:05:30.240Z,17.70
2018-05-29T01:07:57.947Z,17.70
2018-05-29T01:10:26.497Z,17.60
2018-05-29T01:12:54.187Z,17.50
2018-05-29T01:15:22.667Z,17.70
2018-05-29T01:17:51.131Z,17.60
2018-05-29T01:20:18.847Z,17.60
2018-05-29T01:22:46.555Z,17.60
2018-05-29T01:25:14.278Z,17.60
2018-05-29T01:27:41.978Z,17.60
2018-05-29T01:30:10.897Z,17.70
2018-05-29T01:32:38.755Z,17.60
2018-05-29T01:35:06.486Z,17.60
2018-05-29T01:37:34.970Z,17.50
2018-05-29T01:40:02.723Z,17.50
2018-05-29T01:42:30.408Z,17.50
2018-05-29T01:44:58.110Z,17.50
2018-05-29T01:47:26.592Z,17.50
2018-05-29T01:49:55.100Z,17.50
2018-05-29T01:52:22.801Z,17.50
2018-05-29T01:54:50.504Z,17.60
2018-05-29T01:57:18.206Z,17.60
2018-05-29T01:59:45.917Z,17.50
2018-05-29T02:02:13.594Z,17.40
2018-05-29T02:04:42.068Z,17.30
2018-05-29T02:07:09.801Z,17.30
2018-05-29T02:09:37.713Z,17.20
2018-05-29T02:12:05.448Z,17.20
2018-05-29T02:14:33.165Z,17.10
2018-05-29T02:17:00.863Z,17.10
2018-05-29T02:19:28.610Z,17.10
2018-05-29T02:21:56.307Z,17.10
2018-05-29T02:24:24.066Z,17.10
2018-05-29T02:26:51.756Z,17.00
2018-05-29T02:29:19.445Z,17.10
2018-05-29T02:31:47.139Z,17.10
2018-05-29T02:34:14.869Z,17.00
2018-05-29T02:36:43.317Z,16.90
2018-05-29T02:39:11.797Z,16.90
2018-05-29T02:41:39.525Z,16.90
2018-05-29T02:44:07.325Z,16.80
2018-05-29T02:46:35.074Z,16.80
2018-05-29T02:49:02.761Z,16.80
2018-05-29T02:51:30.558Z,16.80
2018-05-29T02:53:58.436Z,16.80
2018-05-29T02:56:26.141Z,16.80
2018-05-29T02:58:53.836Z,16.80
2018-05-29T03:01:22.338Z,16.70
2018-05-29T03:03:50.805Z,16.70
2018-05-29T03:06:18.471Z,16.60
2018-05-29T03:08:46.956Z,16.70
2018-05-29T03:11:15.407Z,16.70
2018-05-29T03:13:43.096Z,16.70
2018-05-29T03:16:11.577Z,16.70
2018-05-29T03:18:39.317Z,16.60
2018-05-29T03:21:07.033Z,16.70
2018-05-29T03:23:34.719Z,16.70
2018-05-29T03:26:02.462Z,16.80
2018-05-29T03:28:30.143Z,16.80
2018-05-29T03:30:57.861Z,16.70
2018-05-29T03:33:26.327Z,16.60
2018-05-29T03:35:54.033Z,16.60
2018-05-29T03:38:21.727Z,16.60
2018-05-29T03:40:49.463Z,16.60
2018-05-29T03:43:17.148Z,16.60
2018-05-29T03:45:44.912Z,16.70
2018-05-29T03:48:12.616Z,16.70
2018-05-29T03:50:40.407Z,16.90
2018-05-29T03:53:08.881Z,16.90
2018-05-29T03:55:37.364Z,17.00
2018-05-29T03:58:05.807Z,17.10
2018-05-29T04:00:33.785Z,17.10
2018-05-29T04:03:01.510Z,17.20
2018-05-29T04:05:29.251Z,17.30
2018-05-29T04:07:57.717Z,17.60
2018-05-29T04:10:26.204Z,17.70
2018-05-29T04:12:53.876Z,17.60
2018-05-29T04:15:22.383Z,18.20
2018-05-29T04:17:50.108Z,18.20
2018-05-29T04:20:18.789Z,19.70
2018-05-29T04:22:46.514Z,19.60
2018-05-29T04:25:14.205Z,20.30
2018-05-29T04:27:41.937Z,20.60
2018-05-29T04:30:10.044Z,21.00
2018-05-29T04:32:37.779Z,21.50
2018-05-29T04:35:06.039Z,21.80
2018-05-29T04:37:33.753Z,22.20
2018-05-29T04:40:02.253Z,23.10
2018-05-29T04:42:30.026Z,23.10
2018-05-29T04:44:57.733Z,22.90
2018-05-29T04:47:25.427Z,23.30
2018-05-29T04:49:53.155Z,23.90
2018-05-29T04:52:20.892Z,24.30
2018-05-29T04:54:48.731Z,25.00
2018-05-29T04:57:16.471Z,25.40
2018-05-29T04:59:44.186Z,25.70
2018-05-29T05:02:12.671Z,25.40
2018-05-29T05:04:41.123Z,25.80
2018-05-29T05:07:08.838Z,25.80
2018-05-29T05:09:36.558Z,25.70
2018-05-29T05:12:05.036Z,25.90
2018-05-29T05:14:32.930Z,25.90
2018-05-29T05:17:00.616Z,26.90
2018-05-29T05:19:31.836Z,27.90
2018-05-29T05:22:00.316Z,27.30
2018-05-29T05:24:28.929Z,26.20
2018-05-29T05:26:56.667Z,26.20
2018-05-29T05:29:25.160Z,24.50
2018-05-29T05:31:53.176Z,24.40
2018-05-29T05:34:20.880Z,23.50
2018-05-29T05:36:49.354Z,22.40
2018-05-29T05:39:17.081Z,22.40
2018-05-29T05:41:44.788Z,22.10
2018-05-29T05:44:13.293Z,22.20
2018-05-29T05:46:40.984Z,22.20
2018-05-29T05:49:08.715Z,22.30
2018-05-29T05:51:36.612Z,22.20
2018-05-29T05:54:04.296Z,22.10
2018-05-29T05:56:32.008Z,22.00
2018-05-29T05:58:59.728Z,22.00
2018-05-29T06:01:27.463Z,22.20
2018-05-29T06:03:55.960Z,22.40
2018-05-29T06:06:23.684Z,22.40
2018-05-29T06:08:51.405Z,22.50
2018-05-29T06:11:19.076Z,22.70
2018-05-29T06:13:46.797Z,22.70
2018-05-29T06:16:14.501Z,22.70
2018-05-29T06:18:42.254Z,22.60
2018-05-29T06:21:09.990Z,22.70
2018-05-29T06:23:38.471Z,22.60
2018-05-29T06:26:06.317Z,22.60
2018-05-29T06:28:34.820Z,22.50
2018-05-29T06:31:03.295Z,22.50
2018-05-29T06:33:31.049Z,22.50
2018-05-29T06:35:59.505Z,22.60
2018-05-29T06:38:27.232Z,22.60
2018-05-29T06:40:54.956Z,22.70
2018-05-29T06:43:23.762Z,22.70
2018-05-29T06:45:52.220Z,22.90
2018-05-29T06:48:19.938Z,22.90
2018-05-29T06:50:47.710Z,23.00
2018-05-29T06:53:15.426Z,23.30
2018-05-29T06:55:43.879Z,23.50
2018-05-29T06:58:11.609Z,23.50
2018-05-29T07:00:39.310Z,23.70
2018-05-29T07:03:07.035Z,23.70
2018-05-29T07:05:34.742Z,23.80
2018-05-29T07:08:02.445Z,24.00
2018-05-29T07:10:30.138Z,24.20
2018-05-29T07:12:57.865Z,24.30
2018-05-29T07:15:25.591Z,24.60
2018-05-29T07:17:53.320Z,24.80
2018-05-29T07:20:21.046Z,25.00
2018-05-29T07:22:48.736Z,25.10
2018-05-29T07:25:16.464Z,25.10
2018-05-29T07:27:44.172Z,25.30
2018-05-29T07:30:13.390Z,25.50
2018-05-29T07:32:41.140Z,25.50
2018-05-29T07:35:08.860Z,25.60
2018-05-29T07:37:36.554Z,25.70
2018-05-29T07:40:05.051Z,26.00
2018-05-29T07:42:32.749Z,26.00
2018-05-29T07:45:00.502Z,26.10
2018-05-29T07:47:28.807Z,26.20
2018-05-29T07:49:56.530Z,26.40
2018-05-29T07:52:24.390Z,26.50
2018-05-29T07:54:52.105Z,26.70
2018-05-29T07:57:19.842Z,26.90
2018-05-29T07:59:47.562Z,26.80
2018-05-29T08:02:15.260Z,26.70
2018-05-29T08:04:42.995Z,26.80
2018-05-29T08:07:11.517Z,26.50
2018-05-29T08:09:39.258Z,26.50
2018-05-29T08:12:07.075Z,26.60
2018-05-29T08:14:34.796Z,26.90
2018-05-29T08:17:02.522Z,27.10
2018-05-29T08:19:30.226Z,27.10
2018-05-29T08:21:57.900Z,27.10
2018-05-29T08:24:25.618Z,27.30
2018-05-29T08:26:54.135Z,27.40
2018-05-29T08:29:21.946Z,27.40
2018-05-29T08:31:49.615Z,27.60
2018-05-29T08:34:17.346Z,27.70
2018-05-29T08:36:45.909Z,27.90
2018-05-29T08:39:13.643Z,28.10
2018-05-29T08:41:41.334Z,28.10
2018-05-29T08:44:09.072Z,28.20
2018-05-29T08:46:37.558Z,28.40
2018-05-29T08:49:06.027Z,28.40
2018-05-29T08:51:33.737Z,28.40
2018-05-29T08:54:01.442Z,28.20
2018-05-29T08:56:29.162Z,28.20
2018-05-29T08:58:56.829Z,28.20
2018-05-29T09:01:24.568Z,28.20
2018-05-29T09:03:53.057Z,28.00
2018-05-29T09:06:20.789Z,28.00
2018-05-29T09:08:48.569Z,28.00
2018-05-29T09:11:16.266Z,28.20
2018-05-29T09:13:43.956Z,28.30
2018-05-29T09:16:11.729Z,28.40
2018-05-29T09:18:39.410Z,28.40
2018-05-29T09:21:07.149Z,28.50
2018-05-29T09:23:34.869Z,28.50
2018-05-29T09:26:03.381Z,28.60
2018-05-29T09:28:31.823Z,28.70
2018-05-29T09:31:00.392Z,28.80
2018-05-29T09:33:28.084Z,28.80
2018-05-29T09:35:56.508Z,28.80
2018-05-29T09:38:24.253Z,28.80
2018-05-29T09:40:51.987Z,28.80
2018-05-29T09:43:20.440Z,28.90
2018-05-29T09:45:48.994Z,28.90
2018-05-29T09:48:16.666Z,28.90
2018-05-29T09:50:44.885Z,29.00
2018-05-29T09:53:12.708Z,29.10
2018-05-29T09:55:40.446Z,29.30
2018-05-29T09:58:08.164Z,29.30
2018-05-29T10:00:39.734Z,29.50
2018-05-29T10:03:08.267Z,29.60
2018-05-29T10:05:35.967Z,29.70
2018-05-29T10:08:03.704Z,29.90
2018-05-29T10:10:31.460Z,30.10
2018-05-29T10:12:59.167Z,30.10
2018-05-29T10:15:26.866Z,30.10
2018-05-29T10:17:54.593Z,30.00
2018-05-29T10:20:23.072Z,30.00
2018-05-29T10:22:51.872Z,30.10
2018-05-29T10:25:19.574Z,30.10
2018-05-29T10:27:47.298Z,30.20
2018-05-29T10:30:15.056Z,30.20
2018-05-29T10:32:42.756Z,30.30
2018-05-29T10:35:10.482Z,30.30
2018-05-29T10:37:38.253Z,30.40
2018-05-29T10:40:05.931Z,30.50
2018-05-29T10:42:34.528Z,30.40
2018-05-29T10:45:03.095Z,30.70
2018-05-29T10:47:30.786Z,30.70
2018-05-29T10:49:59.143Z,30.70
2018-05-29T10:52:26.844Z,30.70
2018-05-29T10:54:54.542Z,30.60
2018-05-29T10:57:22.315Z,30.50
2018-05-29T10:59:49.999Z,30.30
2018-05-29T11:02:18.491Z,30.70
2018-05-29T11:04:46.949Z,30.80
2018-05-29T11:07:14.817Z,30.80
2018-05-29T11:09:42.522Z,30.70
2018-05-29T11:12:10.323Z,30.50
2018-05-29T11:14:38.096Z,30.60
2018-05-29T11:17:05.812Z,30.60
2018-05-29T11:19:33.571Z,30.50
2018-05-29T11:22:01.333Z,30.60
2018-05-29T11:24:29.060Z,30.70
2018-05-29T11:26:56.796Z,30.80
2018-05-29T11:29:24.585Z,31.00
2018-05-29T11:31:52.368Z,30.90
2018-05-29T11:34:20.327Z,31.10
2018-05-29T11:36:48.307Z,31.20
2018-05-29T11:39:18.488Z,31.70
2018-05-29T11:41:46.419Z,31.60
2018-05-29T11:44:14.268Z,31.60
2018-05-29T11:46:41.994Z,31.50
2018-05-29T11:49:09.771Z,31.50
2018-05-29T11:51:37.922Z,31.30
2018-05-29T11:54:05.813Z,31.20
2018-05-29T11:56:33.556Z,30.90
2018-05-29T11:59:01.390Z,31.00
2018-05-29T12:01:29.091Z,31.00
2018-05-29T12:03:57.741Z,30.80
2018-05-29T12:06:25.445Z,30.70
2018-05-29T12:08:53.159Z,30.50
2018-05-29T12:11:20.873Z,30.30
2018-05-29T12:13:48.600Z,30.30
2018-05-29T12:16:16.286Z,30.20
2018-05-29T12:18:44.396Z,30.30
2018-05-29T12:21:12.196Z,30.50
2018-05-29T12:23:40.718Z,30.90
2018-05-29T12:26:09.338Z,30.90
2018-05-29T12:28:37.054Z,30.90
2018-05-29T12:31:04.804Z,30.80
2018-05-29T12:33:32.501Z,30.90
2018-05-29T12:36:00.321Z,30.80
2018-05-29T12:38:28.492Z,30.80
2018-05-29T12:40:56.293Z,30.80
2018-05-29T12:43:24.024Z,30.90
2018-05-29T12:45:51.782Z,30.90
2018-05-29T12:48:20.302Z,31.00
2018-05-29T12:50:48.794Z,31.00
2018-05-29T12:53:16.606Z,31.00
2018-05-29T12:55:44.360Z,31.10
2018-05-29T12:58:12.052Z,31.00
2018-05-29T13:00:39.760Z,31.00
2018-05-29T13:03:08.241Z,30.70
2018-05-29T13:05:35.977Z,30.70
2018-05-29T13:08:03.749Z,30.60
2018-05-29T13:10:31.464Z,30.60
2018-05-29T13:12:59.158Z,30.40
2018-05-29T13:15:26.876Z,30.20
2018-05-29T13:17:54.577Z,30.20
2018-05-29T13:20:22.291Z,30.10
2018-05-29T13:22:49.990Z,29.60
2018-05-29T13:25:17.760Z,29.20
2018-05-29T13:27:45.521Z,29.20
2018-05-29T13:30:13.210Z,28.80
2018-05-29T13:32:40.897Z,28.60
2018-05-29T13:35:09.443Z,27.60
2018-05-29T13:37:37.137Z,27.60
2018-05-29T13:40:05.664Z,27.30
2018-05-29T13:42:33.360Z,27.20
2018-05-29T13:45:01.085Z,27.40
2018-05-29T13:47:28.903Z,27.40
2018-05-29T13:49:56.626Z,27.40
2018-05-29T13:52:25.470Z,26.70
2018-05-29T13:54:53.305Z,26.70
2018-05-29T13:57:21.048Z,26.50
2018-05-29T13:59:48.802Z,26.30
2018-05-29T14:02:16.548Z,26.20
2018-05-29T14:04:44.575Z,26.10
2018-05-29T14:07:12.314Z,26.00
2018-05-29T14:09:40.069Z,25.80
2018-05-29T14:12:07.801Z,25.60
2018-05-29T14:14:35.551Z,25.40
2018-05-29T14:17:03.266Z,25.30
2018-05-29T14:19:31.096Z,25.30
2018-05-29T14:21:58.835Z,25.20
2018-05-29T14:24:26.568Z,25.10
2018-05-29T14:26:54.657Z,25.00
2018-05-29T14:29:22.407Z,25.00
2018-05-29T14:31:50.544Z,25.10
2018-05-29T14:34:19.106Z,24.70
2018-05-29T14:36:46.819Z,24.70
2018-05-29T14:39:14.591Z,24.60
2018-05-29T14:41:42.297Z,24.50
2018-05-29T14:44:10.085Z,24.40
2018-05-29T14:46:38.475Z,24.00
2018-05-29T14:49:06.960Z,24.00
2018-05-29T14:51:35.088Z,23.90
2018-05-29T14:54:02.802Z,24.10
2018-05-29T14:56:31.272Z,24.00
2018-05-29T14:58:59.769Z,24.00
2018-05-29T15:01:28.273Z,24.00
2018-05-29T15:03:56.005Z,24.00
2018-05-29T15:06:24.506Z,23.90
2018-05-29T15:08:53.021Z,23.60
2018-05-29T15:11:20.908Z,23.60
2018-05-29T15:13:48.899Z,23.70
2018-05-29T15:16:16.667Z,23.80
2018-05-29T15:18:44.400Z,23.90
2018-05-29T15:21:12.152Z,24.00
2018-05-29T15:23:40.489Z,24.10
2018-05-29T15:26:08.216Z,24.20
2018-05-29T15:28:35.898Z,24.40
2018-05-29T15:31:03.654Z,24.50
2018-05-29T15:33:31.387Z,24.20
2018-05-29T15:35:59.151Z,24.10
2018-05-29T15:38:26.845Z,23.90
2018-05-29T15:40:54.586Z,23.70
2018-05-29T15:43:22.309Z,23.60
2018-05-29T15:45:50.430Z,23.20
2018-05-29T15:48:18.149Z,22.90
2018-05-29T15:50:46.651Z,22.70
2018-05-29T15:53:14.343Z,22.60
2018-05-29T15:55:43.079Z,23.10
2018-05-29T15:58:11.581Z,23.20
2018-05-29T16:00:39.340Z,23.20
2018-05-29T16:03:07.815Z,23.40
2018-05-29T16:05:36.318Z,23.50
2018-05-29T16:08:04.147Z,23.50
2018-05-29T16:10:31.856Z,23.60
2018-05-29T16:12:59.643Z,23.70
2018-05-29T16:15:27.392Z,23.70
2018-05-29T16:17:55.090Z,23.90
2018-05-29T16:20:22.863Z,24.00
2018-05-29T16:22:50.635Z,23.90
2018-05-29T16:25:18.457Z,23.80
2018-05-29T16:27:46.218Z,23.70
2018-05-29T16:30:13.933Z,23.60
2018-05-29T16:32:41.700Z,23.40
2018-05-29T16:35:10.319Z,23.50
2018-05-29T16:37:38.809Z,23.70
2018-05-29T16:40:06.725Z,23.70
2018-05-29T16:42:34.461Z,23.80
2018-05-29T16:45:02.190Z,23.80
2018-05-29T16:47:29.973Z,23.90
2018-05-29T16:49:58.441Z,23.70
2018-05-29T16:52:26.183Z,23.70
2018-05-29T16:54:54.667Z,23.70
2018-05-29T16:57:23.187Z,23.70
2018-05-29T16:59:50.919Z,23.70
2018-05-29T17:02:19.441Z,23.70
2018-05-29T17:04:47.200Z,23.70
2018-05-29T17:07:15.702Z,23.90
2018-05-29T17:09:43.440Z,24.00
2018-05-29T17:12:11.899Z,24.00
2018-05-29T17:14:39.609Z,24.10
2018-05-29T17:17:07.375Z,24.10
2018-05-29T17:19:35.072Z,23.80
2018-05-29T17:22:02.843Z,23.70
2018-05-29T17:24:31.339Z,23.60
2018-05-29T17:26:59.844Z,23.60
2018-05-29T17:29:27.551Z,23.60
2018-05-29T17:31:56.206Z,23.80
2018-05-29T17:34:23.940Z,23.70
2018-05-29T17:36:51.692Z,23.70
2018-05-29T17:39:19.397Z,23.70
2018-05-29T17:41:47.142Z,23.70
2018-05-29T17:44:15.386Z,23.60
2018-05-29T17:46:43.116Z,23.40
2018-05-29T17:49:10.859Z,23.30
2018-05-29T17:51:40.225Z,23.50
2018-05-29T17:54:08.708Z,23.70
2018-05-29T17:56:37.079Z,23.60
2018-05-29T17:59:05.302Z,23.70
2018-05-29T18:01:33.794Z,24.00
2018-05-29T18:04:01.612Z,24.00
2018-05-29T18:06:29.575Z,24.00
2018-05-29T18:08:58.695Z,23.90
2018-05-29T18:11:27.158Z,23.80
2018-05-29T18:13:56.182Z,23.80
2018-05-29T18:16:24.934Z,23.70
2018-05-29T18:18:53.115Z,23.80
2018-05-29T18:21:21.742Z,23.70
2018-05-29T18:23:51.000Z,23.70
2018-05-29T18:26:19.069Z,23.70
2018-05-29T18:28:49.658Z,23.60
2018-05-29T18:31:17.421Z,23.60
2018-05-29T18:33:45.253Z,23.60
2018-05-29T18:36:13.636Z,23.50
2018-05-29T18:38:41.365Z,23.50
2018-05-29T18:41:09.253Z,23.30
2018-05-29T18:43:37.260Z,23.30
2018-05-29T18:46:05.742Z,23.30
2018-05-29T18:48:37.140Z,23.10
2018-05-29T18:51:05.978Z,23.10
2018-05-29T18:53:33.857Z,23.10
2018-05-29T18:56:02.339Z,22.80
2018-05-29T18:58:30.908Z,22.80
2018-05-29T19:00:59.794Z,22.70
2018-05-29T19:03:28.479Z,22.70
2018-05-29T19:05:56.068Z,22.70
2018-05-29T19:08:24.687Z,22.80
2018-05-29T19:10:53.187Z,22.80
2018-05-29T19:13:22.759Z,22.30
2018-05-29T19:15:50.985Z,22.30
2018-05-29T19:18:18.867Z,22.00
2018-05-29T19:20:48.473Z,21.80
2018-05-29T19:23:16.433Z,21.70
2018-05-29T19:25:44.310Z,21.60
2018-05-29T19:28:12.062Z,21.60
2018-05-29T19:30:39.817Z,21.70
2018-05-29T19:33:08.221Z,21.50
2018-05-29T19:35:39.553Z,21.50
2018-05-29T19:38:08.816Z,21.60
2018-05-29T19:40:38.029Z,21.50
2018-05-29T19:43:06.148Z,21.40
2018-05-29T19:45:34.094Z,21.30
2018-05-29T19:48:02.266Z,21.30
2018-05-29T19:50:30.134Z,21.10
2018-05-29T19:52:57.902Z,21.10
2018-05-29T19:55:31.335Z,21.20
2018-05-29T19:58:00.917Z,21.20
2018-05-29T20:00:31.203Z,21.10
2018-05-29T20:03:01.492Z,20.70
2018-05-29T20:05:29.935Z,20.60
2018-05-29T20:07:59.648Z,20.30
2018-05-29T20:10:27.428Z,20.30
2018-05-29T20:12:55.177Z,20.20
2018-05-29T20:15:24.368Z,20.10
2018-05-29T20:17:52.550Z,20.10
2018-05-29T20:20:20.419Z,20.20
2018-05-29T20:22:48.168Z,20.30
2018-05-29T20:25:15.942Z,20.40
2018-05-29T20:27:44.130Z,20.40
2018-05-29T20:30:12.496Z,20.30
2018-05-29T20:32:40.281Z,20.30
2018-05-29T20:35:08.038Z,20.20
2018-05-29T20:37:36.104Z,20.20
2018-05-29T20:40:04.094Z,20.10
2018-05-29T20:42:31.861Z,20.00
2018-05-29T20:44:59.827Z,20.10
2018-05-29T20:47:28.581Z,20.00
2018-05-29T20:49:56.327Z,20.00
2018-05-29T20:52:24.629Z,20.00
2018-05-29T20:54:53.285Z,20.10
2018-05-29T20:57:21.052Z,20.20
2018-05-29T20:59:49.580Z,20.30
2018-05-29T21:02:17.557Z,20.30
2018-05-29T21:04:45.312Z,20.40
2018-05-29T21:07:13.118Z,20.30
2018-05-29T21:09:40.869Z,20.20
2018-05-29T21:12:08.643Z,20.00
2018-05-29T21:14:36.418Z,20.00
2018-05-29T21:17:04.928Z,19.90
2018-05-29T21:19:33.756Z,19.80
2018-05-29T21:22:01.604Z,19.80
2018-05-29T21:24:29.345Z,19.70
2018-05-29T21:26:57.147Z,19.70
2018-05-29T21:29:24.996Z,19.70
2018-05-29T21:31:52.706Z,19.70
2018-05-29T21:34:20.425Z,19.70
2018-05-29T21:36:48.121Z,19.70
2018-05-29T21:39:15.855Z,19.80
2018-05-29T21:41:43.554Z,19.90
2018-05-29T21:44:12.060Z,20.00
2018-05-29T21:46:40.542Z,19.90
2018-05-29T21:49:08.291Z,19.90
2018-05-29T21:51:36.003Z,19.90
2018-05-29T21:54:03.731Z,19.80
2018-05-29T21:56:32.222Z,19.80
2018-05-29T21:58:59.935Z,19.80
2018-05-29T22:01:27.674Z,19.70
2018-05-29T22:04:00.967Z,19.70
2018-05-29T22:06:28.677Z,19.70
2018-05-29T22:08:57.428Z,19.70
2018-05-29T22:11:25.301Z,19.70
2018-05-29T22:13:53.446Z,19.70
2018-05-29T22:16:21.614Z,19.70
2018-05-29T22:18:50.473Z,19.80
2018-05-29T22:21:18.140Z,19.80
2018-05-29T22:23:45.935Z,19.80
2018-05-29T22:26:14.424Z,19.90
2018-05-29T22:28:42.147Z,19.90
2018-05-29T22:31:09.891Z,20.00
2018-05-29T22:33:37.599Z,20.00
2018-05-29T22:36:05.342Z,20.10
2018-05-29T22:38:33.060Z,20.10
2018-05-29T22:41:00.784Z,20.10
2018-05-29T22:43:28.458Z,20.10
2018-05-29T22:45:56.158Z,20.00
2018-05-29T22:48:23.888Z,20.00
2018-05-29T22:50:52.434Z,19.90
2018-05-29T22:53:20.257Z,19.90
2018-05-29T22:55:48.742Z,19.80
2018-05-29T22:58:16.442Z,19.70
2018-05-29T23:00:44.167Z,19.80
2018-05-29T23:03:11.871Z,19.80
2018-05-29T23:05:39.654Z,19.80
2018-05-29T23:08:07.349Z,19.80
2018-05-29T23:10:35.842Z,20.00
2018-05-29T23:13:03.571Z,19.90
2018-05-29T23:15:31.290Z,20.00
2018-05-29T23:17:59.006Z,20.00
2018-05-29T23:20:27.534Z,20.10
2018-05-29T23:22:55.671Z,20.00
2018-05-29T23:25:23.401Z,20.00
2018-05-29T23:27:51.127Z,20.00
2018-05-29T23:30:18.887Z,20.10
2018-05-29T23:32:47.344Z,19.80
2018-05-29T23:35:15.042Z,19.80
2018-05-29T23:37:42.762Z,19.70
2018-05-29T23:40:10.491Z,19.60
2018-05-29T23:42:38.219Z,19.50
2018-05-29T23:45:06.704Z,19.30
2018-05-29T23:47:34.498Z,19.20
2018-05-29T23:50:02.238Z,19.20
2018-05-29T23:52:30.696Z,19.10
2018-05-29T23:54:59.189Z,19.20
2018-05-29T23:57:27.136Z,19.20
2018-05-29T23:59:54.831Z,19.20
